createdAt,value
2018-03-25T09:51:53.617Z,16.50
2018-03-25T09:54:20.077Z,13.88
2018-03-25T09:56:46.680Z,16.33
2018-03-25T09:59:13.101Z,19.08
2018-03-25T10:01:45.723Z,17.70
2018-03-25T10:04:12.312Z,18.50
2018-03-25T10:06:38.879Z,15.52
2018-03-25T10:09:05.477Z,18.33
2018-03-25T10:11:31.972Z,15.18
2018-03-25T10:13:58.515Z,16.80
2018-03-25T10:16:26.739Z,15.52
2018-03-25T10:18:53.485Z,15.05
2018-03-25T10:21:19.957Z,14.75
2018-03-25T10:23:46.483Z,16.10
2018-03-25T10:51:11.929Z,17.12
2018-03-25T10:53:38.820Z,18.20
2018-03-25T10:56:05.285Z,15.07
2018-03-25T11:25:40.855Z,21.12
2018-03-25T11:28:07.729Z,16.75
2018-03-25T11:30:34.272Z,17.00
2018-03-25T11:33:01.121Z,17.60
2018-03-25T11:35:27.591Z,18.37
2018-03-25T11:37:54.107Z,18.08
2018-03-25T11:40:20.717Z,18.30
2018-03-25T11:42:47.191Z,17.50
2018-03-25T11:45:13.716Z,15.10
2018-03-25T11:47:40.274Z,19.20
2018-03-25T11:50:06.809Z,18.42
2018-03-25T11:52:33.368Z,21.55
2018-03-25T11:54:59.940Z,21.02
2018-03-25T11:57:26.409Z,18.60
2018-03-25T11:59:53.000Z,19.17
2018-03-25T12:02:19.489Z,21.42
2018-03-25T12:04:48.603Z,22.75
2018-03-25T12:07:15.070Z,21.65
2018-03-25T12:09:41.531Z,16.70
2018-03-25T12:12:08.184Z,17.75
2018-03-25T12:14:34.605Z,18.35
2018-03-25T12:17:03.391Z,17.42
2018-03-25T12:19:29.856Z,20.85
2018-03-25T12:21:56.352Z,19.35
2018-03-25T12:24:22.922Z,17.33
2018-03-25T12:26:49.496Z,22.00
2018-03-25T12:29:15.970Z,19.48
2018-03-25T12:31:42.556Z,21.92
2018-03-25T12:34:12.976Z,21.92
2018-03-25T12:36:39.569Z,21.90
2018-03-25T12:39:06.153Z,18.83
2018-03-25T12:41:32.697Z,19.02
2018-03-25T12:43:59.176Z,21.92
2018-03-25T12:46:27.269Z,19.12
2018-03-25T12:48:54.094Z,19.60
2018-03-25T12:51:20.682Z,21.10
2018-03-25T12:53:47.144Z,18.58
2018-03-25T12:56:13.662Z,21.25
2018-03-25T12:58:40.295Z,22.20
2018-03-25T13:01:06.784Z,21.85
2018-03-25T13:03:37.604Z,18.90
2018-03-25T13:06:04.517Z,22.42
2018-03-25T13:08:30.918Z,21.52
2018-03-25T13:10:57.926Z,20.45
2018-03-25T13:13:24.381Z,21.30
2018-03-25T13:15:50.913Z,19.12
2018-03-25T13:18:17.506Z,20.30
2018-03-25T13:20:43.969Z,22.08
2018-03-25T13:23:10.489Z,23.27
2018-03-25T13:25:37.052Z,22.75
2018-03-25T13:28:03.948Z,26.62
2018-03-25T13:30:30.451Z,25.83
2018-03-25T13:32:57.951Z,23.23
2018-03-25T13:35:24.427Z,22.98
2018-03-25T13:37:50.998Z,20.45
2018-03-25T13:40:19.147Z,23.40
2018-03-25T13:42:45.862Z,22.85
2018-03-25T13:45:12.464Z,22.73
2018-03-25T13:47:38.990Z,21.90
2018-03-25T13:50:06.420Z,24.67
2018-03-25T13:52:33.226Z,23.45
2018-03-25T13:55:00.737Z,25.55
2018-03-25T13:57:29.078Z,24.23
2018-03-25T13:59:55.588Z,23.58
2018-03-25T14:02:23.162Z,19.95
2018-03-25T14:04:50.556Z,21.67
2018-03-25T14:07:17.348Z,21.17
2018-03-25T14:09:43.945Z,22.13
2018-03-25T14:12:10.415Z,22.50
2018-03-25T14:14:37.329Z,28.52
2018-03-25T14:17:03.926Z,31.92
2018-03-25T14:19:30.648Z,19.35
2018-03-25T14:21:57.948Z,20.90
2018-03-25T14:24:25.054Z,23.67
2018-03-25T14:26:51.519Z,23.48
2018-03-25T14:29:18.424Z,22.52
2018-03-25T14:31:45.835Z,17.58
2018-03-25T14:34:12.312Z,17.90
2018-03-25T14:36:39.173Z,20.65
2018-03-25T14:39:06.177Z,24.75
2018-03-25T14:41:32.845Z,20.10
2018-03-25T14:43:59.668Z,22.83
2018-03-25T14:46:26.408Z,22.37
2018-03-25T14:48:54.022Z,20.48
2018-03-25T14:51:21.425Z,23.38
2018-03-25T14:53:47.816Z,22.62
2018-03-25T14:56:15.100Z,21.85
2018-03-25T14:58:41.729Z,15.13
2018-03-25T15:01:08.182Z,19.80
2018-03-25T15:03:34.723Z,23.05
2018-03-25T15:06:01.286Z,22.55
2018-03-25T15:08:27.832Z,17.62
2018-03-25T15:13:43.753Z,21.67
2018-03-25T15:16:10.766Z,20.85
2018-03-25T15:18:37.573Z,19.08
2018-03-25T15:21:04.231Z,21.08
2018-03-25T15:23:30.652Z,20.12
2018-03-25T15:25:57.245Z,21.30
2018-03-25T15:28:23.716Z,20.77
2018-03-25T15:30:50.376Z,19.08
2018-03-25T15:33:16.775Z,21.25
2018-03-25T15:35:43.392Z,21.85
2018-03-25T15:38:09.891Z,39.38
2018-03-25T15:40:36.368Z,41.58
2018-03-25T15:43:03.016Z,22.48
2018-03-25T15:45:29.464Z,25.80
2018-03-25T15:47:56.056Z,25.98
2018-03-25T15:50:23.464Z,25.30
2018-03-25T15:52:50.010Z,27.50
2018-03-25T15:55:16.846Z,28.17
2018-03-25T15:57:43.680Z,29.73
2018-03-25T16:00:11.164Z,32.20
2018-03-25T16:02:37.690Z,29.63
2018-03-25T16:05:04.326Z,30.27
2018-03-25T16:07:30.752Z,29.67
2018-03-25T16:09:57.303Z,28.92
2018-03-25T16:12:23.872Z,26.50
2018-03-25T16:14:50.437Z,25.75
2018-03-25T16:17:17.121Z,28.83
2018-03-25T16:19:43.726Z,30.50
2018-03-25T16:22:10.276Z,31.67
2018-03-25T16:24:36.862Z,29.08
2018-03-25T16:27:03.409Z,28.35
2018-03-25T16:29:29.857Z,29.98
2018-03-25T16:31:56.402Z,35.75
2018-03-25T16:34:22.948Z,37.45
2018-03-25T16:36:49.521Z,41.25
2018-03-25T16:39:16.324Z,37.92
2018-03-25T16:41:42.830Z,36.78
2018-03-25T16:44:09.377Z,35.33
2018-03-25T16:46:35.916Z,31.20
2018-03-25T16:49:02.528Z,31.70
2018-03-25T16:51:29.677Z,32.38
2018-03-25T16:53:56.127Z,34.90
2018-03-25T16:56:22.545Z,31.08
2018-03-25T16:58:49.403Z,28.33
2018-03-25T17:01:17.596Z,29.65
2018-03-25T17:03:44.116Z,32.45
2018-03-25T17:06:10.716Z,33.65
2018-03-25T17:08:37.144Z,36.80
2018-03-25T17:11:04.121Z,33.08
2018-03-25T17:13:31.793Z,33.45
2018-03-25T17:15:58.327Z,32.05
2018-03-25T17:18:24.868Z,31.58
2018-03-25T17:20:51.469Z,40.20
2018-03-25T17:23:17.959Z,45.78
2018-03-25T17:25:44.465Z,32.42
2018-03-25T17:28:11.022Z,29.98
2018-03-25T17:30:37.558Z,27.20
2018-03-25T17:33:04.347Z,30.80
2018-03-25T17:35:30.915Z,35.30
2018-03-25T17:37:57.748Z,36.83
2018-03-25T17:40:24.148Z,38.45
2018-03-25T17:42:51.140Z,40.95
2018-03-25T17:45:18.042Z,39.20
2018-03-25T17:47:44.580Z,35.40
2018-03-25T17:50:11.043Z,34.45
2018-03-25T17:52:37.590Z,45.08
2018-03-25T17:55:04.136Z,40.85
2018-03-25T17:57:32.813Z,37.88
2018-03-25T17:59:59.400Z,41.78
2018-03-25T18:02:25.868Z,39.72
2018-03-25T18:04:52.492Z,35.10
2018-03-25T18:07:19.569Z,38.88
2018-03-25T18:09:46.208Z,34.72
2018-03-25T18:12:12.685Z,33.80
2018-03-25T18:14:39.214Z,38.80
2018-03-25T18:17:05.752Z,37.67
2018-03-25T18:19:32.312Z,39.35
2018-03-25T18:21:58.808Z,38.50
2018-03-25T18:24:25.411Z,36.33
2018-03-25T18:26:51.904Z,37.38
2018-03-25T18:29:18.372Z,40.25
2018-03-25T18:31:45.278Z,34.60
2018-03-25T18:34:11.779Z,36.63
2018-03-25T18:36:39.270Z,35.58
2018-03-25T18:39:06.004Z,35.45
2018-03-25T18:41:32.595Z,29.58
2018-03-25T18:43:59.136Z,35.25
2018-03-25T18:46:25.538Z,40.80
2018-03-25T18:48:52.575Z,31.95
2018-03-25T18:51:19.660Z,36.35
2018-03-25T18:53:46.553Z,34.05
2018-03-25T18:56:13.052Z,33.35
2018-03-25T18:58:39.628Z,33.83
2018-03-25T19:01:06.181Z,33.08
2018-03-25T19:03:32.703Z,31.30
2018-03-25T19:05:59.100Z,31.25
2018-03-25T19:08:26.072Z,29.45
2018-03-25T19:10:53.356Z,27.85
2018-03-25T19:13:20.292Z,29.87
2018-03-25T19:15:46.839Z,29.83
2018-03-25T19:18:13.393Z,36.33
2018-03-25T19:20:39.920Z,37.45
2018-03-25T19:23:06.757Z,35.47
2018-03-25T19:25:33.304Z,34.20
2018-03-25T19:27:59.902Z,27.58
2018-03-25T19:30:26.370Z,32.17
2018-03-25T19:32:53.031Z,31.70
2018-03-25T19:35:20.052Z,28.95
2018-03-25T19:37:46.644Z,31.60
2018-03-25T19:40:13.094Z,37.35
2018-03-25T19:42:39.728Z,35.45
2018-03-25T19:45:06.232Z,25.83
2018-03-25T19:47:32.757Z,27.13
2018-03-25T19:49:59.343Z,30.65
2018-03-25T19:52:25.818Z,39.80
2018-03-25T19:54:52.400Z,33.22
2018-03-25T19:57:20.460Z,35.72
2018-03-25T19:59:46.945Z,34.67
2018-03-25T20:02:13.480Z,39.25
2018-03-25T20:04:40.382Z,95.10
2018-03-25T20:07:06.851Z,74.22
2018-03-25T20:09:33.393Z,31.17
2018-03-25T20:12:00.004Z,24.05
2018-03-25T20:14:27.366Z,23.77
2018-03-25T20:16:54.019Z,28.87
2018-03-25T20:19:20.527Z,25.67
2018-03-25T20:21:46.978Z,24.15
2018-03-25T20:24:13.425Z,30.75
2018-03-25T20:26:40.062Z,25.40
2018-03-25T20:29:06.668Z,26.42
2018-03-25T20:31:33.130Z,26.40
2018-03-25T20:33:59.714Z,27.90
2018-03-25T20:36:26.498Z,26.75
2018-03-25T20:38:53.463Z,28.12
2018-03-25T20:41:19.957Z,25.73
2018-03-25T20:43:47.404Z,24.42
2018-03-25T20:46:13.861Z,27.23
2018-03-25T20:48:42.551Z,24.17
2018-03-25T20:51:09.110Z,24.20
2018-03-25T20:53:35.705Z,25.52
2018-03-25T20:56:03.210Z,27.35
2018-03-25T20:58:29.985Z,23.90
2018-03-25T21:00:56.859Z,28.77
2018-03-25T21:03:23.344Z,29.98
2018-03-25T21:05:50.148Z,26.25
2018-03-25T21:08:16.620Z,25.67
2018-03-25T21:10:43.211Z,22.67
2018-03-25T21:13:11.927Z,22.67
2018-03-25T21:15:39.656Z,21.33
2018-03-25T21:18:06.609Z,22.77
2018-03-25T21:20:33.012Z,22.35
2018-03-25T21:22:59.953Z,22.37
2018-03-25T21:25:26.477Z,24.83
2018-03-25T21:27:53.009Z,22.67
2018-03-25T21:30:19.508Z,20.92
2018-03-25T21:32:46.021Z,22.55
2018-03-25T21:35:12.670Z,19.62
2018-03-25T21:37:39.700Z,20.58
2018-03-25T21:40:06.248Z,18.65
2018-03-25T21:42:32.636Z,19.33
2018-03-25T21:44:59.934Z,18.20
2018-03-25T21:47:27.460Z,16.45
2018-03-25T21:49:53.912Z,20.05
2018-03-25T21:52:20.456Z,20.15
2018-03-25T21:54:47.288Z,17.90
2018-03-25T21:57:13.913Z,21.33
2018-03-25T21:59:40.416Z,20.05
2018-03-25T22:02:06.944Z,18.37
2018-03-25T22:04:33.441Z,22.00
2018-03-25T22:07:00.032Z,17.55
2018-03-25T22:09:28.051Z,17.23
2018-03-25T22:11:54.584Z,18.95
2018-03-25T22:14:21.163Z,16.42
2018-03-25T22:16:47.692Z,20.08
2018-03-25T22:19:14.192Z,16.20
2018-03-25T22:21:40.720Z,20.35
2018-03-25T22:24:07.249Z,18.02
2018-03-25T22:26:33.780Z,18.77
2018-03-25T22:29:00.312Z,19.10
2018-03-25T22:31:26.901Z,16.00
2018-03-25T22:33:53.392Z,16.45
2018-03-25T22:36:19.937Z,20.20
2018-03-25T22:38:46.477Z,21.67
2018-03-25T22:41:12.987Z,20.25
2018-03-25T22:43:39.677Z,22.83
2018-03-25T22:46:06.059Z,19.73
2018-03-25T22:48:32.661Z,25.30
2018-03-25T22:50:59.202Z,21.35
2018-03-25T22:53:25.795Z,16.65
2018-03-25T22:55:52.294Z,18.92
2018-03-25T22:58:18.804Z,18.77
2018-03-25T23:00:45.381Z,18.48
2018-03-25T23:03:12.464Z,18.70
2018-03-25T23:05:39.329Z,24.25
2018-03-25T23:08:05.806Z,29.67
2018-03-25T23:10:32.744Z,37.72
2018-03-25T23:13:00.487Z,51.83
2018-03-25T23:15:26.975Z,71.55
2018-03-25T23:17:53.476Z,52.88
2018-03-25T23:20:19.937Z,26.77
2018-03-25T23:22:46.868Z,21.70
2018-03-25T23:25:15.279Z,13.00
2018-03-25T23:27:41.840Z,14.77
2018-03-25T23:30:08.365Z,12.25
2018-03-25T23:32:34.835Z,15.85
2018-03-25T23:35:01.381Z,18.17
2018-03-25T23:37:28.276Z,14.18
2018-03-25T23:39:54.744Z,16.60
2018-03-25T23:42:21.132Z,19.58
2018-03-25T23:44:47.584Z,34.53
2018-03-25T23:47:14.053Z,51.25
2018-03-25T23:49:40.906Z,43.60
2018-03-25T23:52:07.304Z,56.25
2018-03-25T23:54:34.340Z,52.97
2018-03-25T23:57:02.041Z,27.42
2018-03-25T23:59:28.584Z,14.55
